首页
METAR-TAF:

METAR-TAF

机场 :

John H. Batten Airport

Racine, 威斯康辛州, 美国

纬度: 42-45-31N, 经度: 087-49-04W, 海拔: 205米

当前天气观测

该预报发布于50分钟前的07:53 UTC
风速3节,风向东南
温度 5°C
湿度 87%
气压 1020 hPa
能見度: 16.1公里
多云层高于11000英尺

METAR: KRAC 030753Z AUTO 13003KT 10SM BKN110 05/03 A3012 RMK AO2 SLP202 T00500028

时间: 03:43 (08:43 UTC)


TAF: 丢失

超过4000个机场的气象观测和天气预报(METAR&TAF报告)。

可查询的气象台以黄色和红色小点在地图上表示。

将鼠标移到小点上方,可查看气象台名称。

然后点击查看天气观测和预报。

如需切换地图:点击带黑十字的绿色按钮放大地图;点击带横线的绿色按钮缩小地图;或者点击绿色箭头查看邻近地区的地图。


METAR-TAF: